createdAt,value
2023-02-03T00:01:51.082Z,2.60
2023-02-03T00:04:19.198Z,1.20
2023-02-03T00:06:48.042Z,3.30
2023-02-03T00:09:17.656Z,4.77
2023-02-03T00:11:45.674Z,2.00
2023-02-03T00:14:13.761Z,2.83
2023-02-03T00:16:41.985Z,3.23
2023-02-03T00:19:10.010Z,4.07
2023-02-03T00:21:38.058Z,2.10
2023-02-03T00:24:06.597Z,2.70
2023-02-03T00:26:35.981Z,2.00
2023-02-03T00:29:03.983Z,1.73
2023-02-03T00:31:32.199Z,2.00
2023-02-03T00:34:00.241Z,5.17
2023-02-03T00:36:29.111Z,1.00
2023-02-03T00:38:57.135Z,1.77
2023-02-03T00:41:29.238Z,1.53
2023-02-03T00:43:58.778Z,2.77
2023-02-03T00:46:26.929Z,2.77
2023-02-03T00:48:55.159Z,2.00
2023-02-03T00:51:23.226Z,1.43
2023-02-03T00:53:51.267Z,1.10
2023-02-03T00:56:19.300Z,2.07
2023-02-03T00:58:47.609Z,1.67
2023-02-03T01:01:17.036Z,1.20
2023-02-03T01:03:45.082Z,5.03
2023-02-03T01:06:15.493Z,1.40
2023-02-03T01:08:43.977Z,1.40
2023-02-03T01:11:14.136Z,7.80
2023-02-03T01:13:42.401Z,1.20
2023-02-03T01:16:11.490Z,1.30
2023-02-03T01:18:41.659Z,1.63
2023-02-03T01:21:13.027Z,1.80
2023-02-03T01:23:41.225Z,1.53
2023-02-03T01:26:12.186Z,1.50
2023-02-03T01:28:40.616Z,1.43
2023-02-03T01:31:13.620Z,4.20
2023-02-03T01:33:48.067Z,1.10
2023-02-03T01:36:17.361Z,0.97
2023-02-03T01:38:46.151Z,0.90
2023-02-03T01:41:17.163Z,1.60
2023-02-03T01:43:48.617Z,1.80
2023-02-03T01:46:26.343Z,2.10
2023-02-03T01:48:57.782Z,1.20
2023-02-03T01:51:25.957Z,1.30
2023-02-03T01:53:57.304Z,0.87
2023-02-03T01:56:29.972Z,1.33
2023-02-03T01:59:00.261Z,2.53
2023-02-03T02:01:31.041Z,3.10
2023-02-03T02:04:02.802Z,0.80
2023-02-03T02:06:30.951Z,0.87
2023-02-03T02:09:01.604Z,2.53
2023-02-03T02:11:30.057Z,2.40
2023-02-03T02:14:01.164Z,2.30
2023-02-03T02:16:42.223Z,2.10
2023-02-03T02:19:40.958Z,1.83
2023-02-03T02:22:15.396Z,2.33
2023-02-03T02:25:19.428Z,1.47
2023-02-03T02:28:34.872Z,1.17
2023-02-03T02:31:54.208Z,3.70
2023-02-03T02:34:35.302Z,1.03
2023-02-03T02:37:10.502Z,1.50
2023-02-03T02:39:47.019Z,1.57
2023-02-03T02:42:19.596Z,1.90
2023-02-03T02:44:52.394Z,1.67
2023-02-03T02:47:23.164Z,2.13
2023-02-03T02:49:59.496Z,1.00
2023-02-03T02:52:31.148Z,1.73
2023-02-03T02:55:04.047Z,1.27
2023-02-03T02:57:35.113Z,0.93
2023-02-03T03:00:03.737Z,0.77
2023-02-03T03:02:34.925Z,0.80
2023-02-03T03:05:06.977Z,2.97
2023-02-03T03:07:45.455Z,1.23
2023-02-03T03:10:16.528Z,5.33
2023-02-03T03:12:49.917Z,2.40
2023-02-03T03:15:22.269Z,1.20
2023-02-03T03:17:54.342Z,1.30
2023-02-03T03:20:27.541Z,1.83
2023-02-03T03:23:00.431Z,1.90
2023-02-03T03:25:33.421Z,1.50
2023-02-03T03:28:06.761Z,1.00
2023-02-03T03:30:37.382Z,2.33
2023-02-03T03:33:06.918Z,2.50
2023-02-03T03:35:42.314Z,1.77
2023-02-03T03:38:15.808Z,2.23
2023-02-03T03:40:49.728Z,1.60
2023-02-03T03:43:21.006Z,0.97
2023-02-03T03:45:55.917Z,0.80
2023-02-03T03:48:29.306Z,1.43
2023-02-03T03:51:03.831Z,6.93
2023-02-03T03:53:34.947Z,1.80
2023-02-03T03:56:05.913Z,4.23
2023-02-03T03:58:34.166Z,1.07
2023-02-03T04:01:04.760Z,3.53
2023-02-03T04:03:38.675Z,1.23
2023-02-03T04:06:08.623Z,1.37
2023-02-03T04:08:36.619Z,0.77
2023-02-03T04:11:04.767Z,1.17
2023-02-03T04:13:32.800Z,1.70
2023-02-03T04:16:00.874Z,2.40
2023-02-03T04:18:28.941Z,2.50
2023-02-03T04:20:56.943Z,1.33
2023-02-03T04:23:26.320Z,1.47
2023-02-03T04:25:54.372Z,1.40
2023-02-03T04:28:22.380Z,1.10
2023-02-03T04:30:50.419Z,1.10
2023-02-03T04:33:18.543Z,0.80
2023-02-03T04:35:46.564Z,2.90
2023-02-03T04:38:14.601Z,1.20
2023-02-03T04:40:45.485Z,1.30
2023-02-03T04:43:15.019Z,1.47
2023-02-03T04:45:43.108Z,1.00
2023-02-03T04:48:11.146Z,8.53
2023-02-03T04:50:39.172Z,2.70
2023-02-03T04:53:07.180Z,1.10
2023-02-03T04:55:35.197Z,1.70
2023-02-03T04:58:04.873Z,1.07
2023-02-03T05:00:32.926Z,2.13
2023-02-03T05:03:01.037Z,1.30
2023-02-03T05:05:29.071Z,3.70
2023-02-03T05:07:57.099Z,0.90
2023-02-03T05:10:25.181Z,1.10
2023-02-03T05:12:53.788Z,0.80
2023-02-03T05:15:23.172Z,2.70
2023-02-03T05:17:53.287Z,1.93
2023-02-03T05:20:22.085Z,1.73
2023-02-03T05:22:50.108Z,0.90
2023-02-03T05:25:18.356Z,1.00
2023-02-03T05:27:46.483Z,1.50
2023-02-03T05:30:14.645Z,0.80
2023-02-03T05:32:44.187Z,0.70
2023-02-03T05:35:12.577Z,1.97
2023-02-03T05:37:40.575Z,1.03
2023-02-03T05:40:27.669Z,1.23
2023-02-03T05:42:55.886Z,1.23
2023-02-03T05:45:23.929Z,3.27
2023-02-03T05:47:53.280Z,1.30
2023-02-03T05:50:22.779Z,1.70
2023-02-03T05:52:50.929Z,1.47
2023-02-03T05:55:19.159Z,2.20
2023-02-03T05:57:47.225Z,2.43
2023-02-03T06:00:16.103Z,0.97
2023-02-03T06:02:44.113Z,3.80
2023-02-03T06:05:13.448Z,2.17
2023-02-03T06:07:41.448Z,4.20
2023-02-03T06:10:10.416Z,1.83
2023-02-03T06:12:38.819Z,1.00
2023-02-03T06:15:07.686Z,1.77
2023-02-03T06:17:36.003Z,1.30
2023-02-03T06:20:04.444Z,1.47
2023-02-03T06:22:33.820Z,1.13
2023-02-03T06:25:01.839Z,1.43
2023-02-03T06:27:29.858Z,1.30
2023-02-03T06:29:57.902Z,1.00
2023-02-03T06:32:26.055Z,1.13
2023-02-03T06:34:54.079Z,1.80
2023-02-03T06:37:23.880Z,1.43
2023-02-03T06:39:54.132Z,3.53
2023-02-03T06:42:22.202Z,1.13
2023-02-03T06:44:50.242Z,1.97
2023-02-03T06:47:18.270Z,1.23
2023-02-03T06:49:46.326Z,0.90
2023-02-03T06:52:14.469Z,1.93
2023-02-03T06:54:42.589Z,1.00
2023-02-03T06:57:11.975Z,2.63
2023-02-03T06:59:39.993Z,0.80
2023-02-03T07:02:07.995Z,2.77
2023-02-03T07:04:36.011Z,2.60
2023-02-03T07:07:04.026Z,2.40
2023-02-03T07:09:32.071Z,2.83
2023-02-03T07:12:00.059Z,1.73
2023-02-03T07:14:30.754Z,4.23
2023-02-03T07:16:58.821Z,9.27
2023-02-03T07:19:26.850Z,2.60
2023-02-03T07:21:54.890Z,2.90
2023-02-03T07:24:22.900Z,1.60
2023-02-03T07:26:50.935Z,1.60
2023-02-03T07:29:19.402Z,3.13
2023-02-03T07:31:48.850Z,2.90
2023-02-03T07:34:16.922Z,2.20
2023-02-03T07:36:44.929Z,1.00
2023-02-03T07:39:13.196Z,2.10
2023-02-03T07:41:41.312Z,2.20
2023-02-03T07:44:10.097Z,1.90
2023-02-03T07:46:39.856Z,1.47
2023-02-03T07:49:09.675Z,2.93
2023-02-03T07:51:37.900Z,1.67
2023-02-03T07:54:06.036Z,4.33
2023-02-03T07:56:34.556Z,3.00
2023-02-03T07:59:02.710Z,2.03
2023-02-03T08:01:31.339Z,1.97
2023-02-03T08:04:01.971Z,1.53
2023-02-03T08:06:31.517Z,1.10
2023-02-03T08:08:59.570Z,4.37
2023-02-03T08:11:27.698Z,2.33
2023-02-03T08:13:55.708Z,2.20
2023-02-03T08:16:23.751Z,5.60
2023-02-03T08:18:51.776Z,2.40
2023-02-03T08:21:19.838Z,3.27
2023-02-03T08:23:49.204Z,2.47
2023-02-03T08:26:17.269Z,2.20
2023-02-03T08:28:49.966Z,1.20
2023-02-03T08:31:18.630Z,1.03
2023-02-03T08:33:46.812Z,1.67
2023-02-03T08:36:14.856Z,2.40
2023-02-03T08:38:43.082Z,2.93
2023-02-03T08:41:14.399Z,3.33
2023-02-03T08:43:42.824Z,1.70
2023-02-03T08:46:12.789Z,1.20
2023-02-03T08:48:41.395Z,1.13
2023-02-03T08:51:13.795Z,5.07
2023-02-03T08:53:41.866Z,1.17
2023-02-03T08:56:13.181Z,1.53
2023-02-03T08:58:41.260Z,1.40
2023-02-03T09:01:10.406Z,2.67
2023-02-03T09:03:38.934Z,1.10
2023-02-03T09:06:08.016Z,3.37
2023-02-03T09:08:36.110Z,1.53
2023-02-03T09:11:04.205Z,0.80
2023-02-03T09:13:35.084Z,5.63
2023-02-03T09:16:03.095Z,4.13
2023-02-03T09:18:31.118Z,1.40
2023-02-03T09:21:02.383Z,1.10
2023-02-03T09:23:31.115Z,1.50
2023-02-03T09:26:03.392Z,1.60
2023-02-03T09:28:33.129Z,2.70
2023-02-03T09:31:02.379Z,1.57
2023-02-03T09:33:30.718Z,1.43
2023-02-03T09:35:59.332Z,1.53
2023-02-03T09:38:28.266Z,1.40
2023-02-03T09:41:11.250Z,1.57
2023-02-03T09:43:47.280Z,1.77
2023-02-03T09:46:20.638Z,0.60
2023-02-03T09:48:52.851Z,3.60
2023-02-03T09:51:24.349Z,2.90
2023-02-03T09:53:59.415Z,3.60
2023-02-03T09:56:30.752Z,1.50
2023-02-03T09:59:00.255Z,2.60
2023-02-03T10:01:36.792Z,2.40
2023-02-03T10:04:18.765Z,0.60
2023-02-03T10:06:48.126Z,1.77
2023-02-03T10:09:30.481Z,2.97
2023-02-03T10:12:21.447Z,4.30
2023-02-03T10:15:03.811Z,1.80
2023-02-03T10:17:34.837Z,1.37
2023-02-03T10:20:08.247Z,7.53
2023-02-03T10:22:42.895Z,1.10
2023-02-03T10:25:24.711Z,3.23
2023-02-03T10:27:54.380Z,1.10
2023-02-03T10:30:26.491Z,0.80
2023-02-03T10:32:56.980Z,1.90
2023-02-03T10:35:37.941Z,1.10
2023-02-03T10:38:14.656Z,2.30
2023-02-03T10:40:42.754Z,2.50
2023-02-03T10:43:29.290Z,2.70
2023-02-03T10:45:59.844Z,1.03
2023-02-03T10:48:28.610Z,1.47
2023-02-03T10:50:58.206Z,1.20
2023-02-03T10:53:33.232Z,1.37
2023-02-03T10:56:05.767Z,3.40
2023-02-03T10:58:35.475Z,4.67
2023-02-03T11:01:11.752Z,2.87
2023-02-03T11:03:43.778Z,0.77
2023-02-03T11:06:14.012Z,2.30
2023-02-03T11:08:44.191Z,3.43
2023-02-03T11:11:16.375Z,0.80
2023-02-03T11:13:44.449Z,0.90
2023-02-03T11:16:17.024Z,1.60
2023-02-03T11:18:56.112Z,2.07
2023-02-03T11:21:26.470Z,1.30
2023-02-03T11:24:07.745Z,0.90
2023-02-03T11:26:38.053Z,0.87
2023-02-03T11:29:08.171Z,3.00
2023-02-03T11:31:38.252Z,2.13
2023-02-03T11:34:08.790Z,1.43
2023-02-03T11:36:37.404Z,0.60
2023-02-03T11:39:20.482Z,2.10
2023-02-03T11:41:49.183Z,1.93
2023-02-03T11:44:20.879Z,0.80
2023-02-03T11:46:53.252Z,2.63
2023-02-03T11:49:55.387Z,0.60
2023-02-03T11:52:50.700Z,3.13
2023-02-03T11:55:41.628Z,0.70
2023-02-03T11:58:30.849Z,0.60
2023-02-03T12:01:10.976Z,1.77
2023-02-03T12:04:19.816Z,0.80
2023-02-03T12:07:00.979Z,0.90
2023-02-03T12:09:41.228Z,0.97
2023-02-03T12:12:25.284Z,0.90
2023-02-03T12:15:02.798Z,1.10
2023-02-03T12:17:52.001Z,1.87
2023-02-03T12:20:33.033Z,0.60
2023-02-03T12:23:12.797Z,0.60
2023-02-03T12:25:56.073Z,0.70
2023-02-03T12:28:40.788Z,0.60
2023-02-03T12:31:16.745Z,1.40
2023-02-03T12:33:48.621Z,2.40
2023-02-03T12:36:23.308Z,2.70
2023-02-03T12:38:55.705Z,0.60
2023-02-03T12:41:27.611Z,0.83
2023-02-03T12:44:00.681Z,0.80
2023-02-03T12:46:32.201Z,0.90
2023-02-03T12:49:04.243Z,0.60
2023-02-03T12:51:39.854Z,1.43
2023-02-03T12:54:30.255Z,2.40
2023-02-03T12:57:07.290Z,1.33
2023-02-03T12:59:38.943Z,0.60
2023-02-03T13:02:17.783Z,0.60
2023-02-03T13:04:54.300Z,0.60
2023-02-03T13:07:28.373Z,0.70
2023-02-03T13:10:00.796Z,0.63
2023-02-03T13:12:32.248Z,0.57
2023-02-03T13:15:07.481Z,1.00
2023-02-03T13:17:44.728Z,1.00
2023-02-03T13:20:19.894Z,1.00
2023-02-03T13:22:49.309Z,1.30
2023-02-03T13:25:24.221Z,0.73
2023-02-03T13:28:03.672Z,0.60
2023-02-03T13:30:46.258Z,0.70
2023-02-03T13:33:43.328Z,0.70
2023-02-03T13:36:32.556Z,1.43
2023-02-03T13:39:29.075Z,0.60
2023-02-03T13:42:09.391Z,1.20
2023-02-03T13:44:40.622Z,0.60
2023-02-03T13:47:17.635Z,1.87
2023-02-03T13:49:50.980Z,0.80
2023-02-03T13:52:33.484Z,0.70
2023-02-03T13:55:03.958Z,1.10
2023-02-03T13:57:36.882Z,0.60
2023-02-03T14:00:08.227Z,0.70
2023-02-03T14:02:53.445Z,0.60
2023-02-03T14:05:48.864Z,0.63
2023-02-03T14:08:53.871Z,0.60
2023-02-03T14:12:13.298Z,0.60
2023-02-03T14:15:04.654Z,0.57
2023-02-03T14:17:56.071Z,0.60
2023-02-03T14:21:11.445Z,0.60
2023-02-03T14:24:03.686Z,0.60
2023-02-03T14:26:38.558Z,0.60
2023-02-03T14:29:10.456Z,0.70
2023-02-03T14:31:57.637Z,0.80
2023-02-03T14:34:34.900Z,1.10
2023-02-03T14:37:19.126Z,0.80
2023-02-03T14:40:11.456Z,1.20
2023-02-03T14:43:10.414Z,1.13
2023-02-03T14:46:06.218Z,1.43
2023-02-03T14:48:51.979Z,0.80
2023-02-03T14:51:33.788Z,1.30
2023-02-03T14:54:19.431Z,1.83
2023-02-03T14:57:08.275Z,2.10
2023-02-03T14:59:41.967Z,1.70
2023-02-03T15:02:23.046Z,2.10
2023-02-03T15:04:51.391Z,1.37
2023-02-03T15:07:44.612Z,1.83
2023-02-03T15:10:17.880Z,1.97
2023-02-03T15:12:48.581Z,1.93
2023-02-03T15:15:22.460Z,2.67
2023-02-03T15:17:53.638Z,4.63
2023-02-03T15:20:32.444Z,1.30
2023-02-03T15:23:00.764Z,1.83
2023-02-03T15:25:31.833Z,2.80
2023-02-03T15:28:16.500Z,1.60
2023-02-03T15:30:45.958Z,1.13
2023-02-03T15:33:20.947Z,1.10
2023-02-03T15:35:51.948Z,2.07
2023-02-03T15:38:23.770Z,1.10
2023-02-03T15:40:57.979Z,2.30
2023-02-03T15:43:32.332Z,1.00
2023-02-03T15:46:07.443Z,1.77
2023-02-03T15:48:42.236Z,2.23
2023-02-03T15:51:14.303Z,4.90
2023-02-03T15:53:49.478Z,1.27
2023-02-03T15:56:26.436Z,1.17
2023-02-03T15:58:54.912Z,1.40
2023-02-03T16:01:26.551Z,1.33
2023-02-03T16:03:57.288Z,1.50
2023-02-03T16:06:30.357Z,1.27
2023-02-03T16:08:59.707Z,1.37
2023-02-03T16:11:34.069Z,1.17
2023-02-03T16:14:04.324Z,1.40
2023-02-03T16:16:37.549Z,4.37
2023-02-03T16:19:12.956Z,1.50
2023-02-03T16:21:54.045Z,2.33
2023-02-03T16:24:38.597Z,4.63
2023-02-03T16:27:37.007Z,3.60
2023-02-03T16:30:41.706Z,3.70
2023-02-03T16:33:36.912Z,2.93
2023-02-03T16:36:31.913Z,1.70
2023-02-03T16:39:20.976Z,2.80
2023-02-03T16:42:06.505Z,2.80
2023-02-03T16:44:51.921Z,4.27
2023-02-03T16:47:43.925Z,3.60
2023-02-03T16:50:38.574Z,4.10
2023-02-03T16:53:14.637Z,1.47
2023-02-03T16:55:43.014Z,3.37
2023-02-03T16:58:11.954Z,3.57
2023-02-03T17:00:41.420Z,1.60
2023-02-03T17:03:11.033Z,2.40
2023-02-03T17:05:39.739Z,2.13
2023-02-03T17:08:09.369Z,3.53
2023-02-03T17:10:38.993Z,2.20
2023-02-03T17:13:07.903Z,1.57
2023-02-03T17:15:36.036Z,2.30
2023-02-03T17:18:04.185Z,1.47
2023-02-03T17:20:32.204Z,2.20
2023-02-03T17:23:00.336Z,1.50
2023-02-03T17:25:30.432Z,3.23
2023-02-03T17:27:58.743Z,3.23
2023-02-03T17:30:26.749Z,2.60
2023-02-03T17:32:55.281Z,1.40
2023-02-03T17:35:24.224Z,2.40
2023-02-03T17:37:52.891Z,2.37
2023-02-03T17:54:14.881Z,4.33
2023-02-03T17:56:47.367Z,5.00
2023-02-03T17:59:17.087Z,5.53
2023-02-03T18:01:46.707Z,6.80
2023-02-03T18:04:14.891Z,7.13
2023-02-03T18:06:42.972Z,8.37
2023-02-03T18:09:14.030Z,5.93
2023-02-03T18:11:42.464Z,9.53
2023-02-03T18:14:12.934Z,6.47
2023-02-03T18:16:44.180Z,7.00
2023-02-03T18:19:14.523Z,9.37
2023-02-03T18:21:43.757Z,12.30
2023-02-03T18:24:13.958Z,7.73
2023-02-03T18:26:49.507Z,7.30
2023-02-03T18:29:18.521Z,10.87
2023-02-03T18:31:49.072Z,6.90
2023-02-03T18:34:18.021Z,5.47
2023-02-03T18:36:46.393Z,9.47
2023-02-03T18:39:16.331Z,5.23
2023-02-03T18:41:44.301Z,9.07
2023-02-03T18:44:12.286Z,8.60
2023-02-03T18:46:40.235Z,9.63
2023-02-03T18:49:10.353Z,5.43
2023-02-03T18:51:38.459Z,4.00
2023-02-03T18:54:06.546Z,5.07
2023-02-03T18:56:35.914Z,7.00
2023-02-03T18:59:09.019Z,8.07
2023-02-03T19:01:38.650Z,13.90
2023-02-03T19:04:06.988Z,3.30
2023-02-03T19:06:36.765Z,8.50
2023-02-03T19:09:06.350Z,12.43
2023-02-03T19:11:34.998Z,4.57
2023-02-03T19:14:03.193Z,12.83
2023-02-03T19:16:31.585Z,7.70
2023-02-03T19:18:59.625Z,10.80
2023-02-03T19:21:27.670Z,4.67
2023-02-03T19:23:57.028Z,5.47
2023-02-03T19:26:25.046Z,7.47
2023-02-03T19:28:53.037Z,10.83
2023-02-03T19:31:21.220Z,12.03
2023-02-03T19:33:49.540Z,7.40
2023-02-03T19:36:17.616Z,7.67
2023-02-03T19:38:45.660Z,9.57
2023-02-03T19:41:15.092Z,16.93
2023-02-03T19:43:43.088Z,10.27
2023-02-03T19:46:11.303Z,8.60
2023-02-03T19:48:39.575Z,5.80
2023-02-03T19:51:07.933Z,5.30
2023-02-03T19:53:36.520Z,9.97
2023-02-03T19:56:05.393Z,12.17
2023-02-03T19:58:35.863Z,6.40
2023-02-03T20:01:03.890Z,7.13
2023-02-03T20:03:32.602Z,10.20
2023-02-03T20:06:01.189Z,5.47
2023-02-03T20:08:29.353Z,13.20
2023-02-03T20:10:57.359Z,9.93
2023-02-03T20:13:25.391Z,10.83
2023-02-03T20:15:54.812Z,10.20
2023-02-03T20:18:22.856Z,19.63
2023-02-03T20:20:51.528Z,13.30
2023-02-03T20:23:19.550Z,7.50
2023-02-03T20:25:49.537Z,9.33
2023-02-03T20:28:18.698Z,7.03
2023-02-03T20:30:46.856Z,10.47
2023-02-03T20:33:16.268Z,8.93
2023-02-03T20:35:44.429Z,12.20
2023-02-03T20:38:12.552Z,7.60
2023-02-03T20:40:40.516Z,9.03
2023-02-03T20:43:16.302Z,10.83
2023-02-03T20:45:44.334Z,8.90
2023-02-03T20:48:13.890Z,10.97
2023-02-03T20:50:47.159Z,7.33
2023-02-03T20:53:17.286Z,13.67
2023-02-03T20:55:45.383Z,4.83
2023-02-03T20:58:23.208Z,13.33
2023-02-03T21:00:52.364Z,9.10
2023-02-03T21:03:39.272Z,7.87
2023-02-03T21:06:14.954Z,10.90
2023-02-03T21:08:44.077Z,9.43
2023-02-03T21:11:15.803Z,10.83
2023-02-03T21:13:45.432Z,17.13
2023-02-03T21:16:17.716Z,10.10
2023-02-03T21:18:51.505Z,8.73
2023-02-03T21:21:27.304Z,26.40
2023-02-03T21:23:55.921Z,13.37
2023-02-03T21:26:25.588Z,10.53
2023-02-03T21:28:56.154Z,7.43
2023-02-03T21:31:26.925Z,8.57
2023-02-03T21:33:56.509Z,12.20
2023-02-03T21:36:28.303Z,10.17
2023-02-03T21:38:59.642Z,11.63
2023-02-03T21:41:32.967Z,11.03
2023-02-03T21:44:01.315Z,16.73
2023-02-03T21:46:32.777Z,11.27
2023-02-03T21:49:01.685Z,9.43
2023-02-03T21:51:34.663Z,14.43
2023-02-03T21:54:04.111Z,5.93
2023-02-03T21:56:38.734Z,14.80
2023-02-03T21:59:16.370Z,13.23
2023-02-03T22:01:44.407Z,12.37
2023-02-03T22:04:12.433Z,7.50
2023-02-03T22:06:44.964Z,12.50
2023-02-03T22:09:14.541Z,13.27
2023-02-03T22:11:42.571Z,13.63
2023-02-03T22:14:10.651Z,12.07
2023-02-03T22:16:38.733Z,10.67
2023-02-03T22:19:06.897Z,13.03
2023-02-03T22:21:35.512Z,8.17
2023-02-03T22:24:05.502Z,8.30
2023-02-03T22:26:33.872Z,7.33
2023-02-03T22:29:02.478Z,13.03
2023-02-03T22:31:30.626Z,4.70
2023-02-03T22:33:58.824Z,7.63
2023-02-03T22:36:26.938Z,9.67
2023-02-03T22:38:54.918Z,12.20
2023-02-03T22:41:24.257Z,9.83
2023-02-03T22:43:52.229Z,11.17
2023-02-03T22:46:20.504Z,14.00
2023-02-03T22:48:48.547Z,11.50
2023-02-03T22:51:16.603Z,17.67
2023-02-03T22:53:44.689Z,9.20
2023-02-03T22:56:12.722Z,6.20
2023-02-03T22:58:42.094Z,11.80
2023-02-03T23:01:10.093Z,9.27
2023-02-03T23:03:38.198Z,7.73
2023-02-03T23:06:06.423Z,6.77
2023-02-03T23:08:34.466Z,11.07
2023-02-03T23:11:02.504Z,7.73
2023-02-03T23:13:30.521Z,11.70
2023-02-03T23:15:59.933Z,7.63
2023-02-03T23:18:28.067Z,7.33
2023-02-03T23:20:56.089Z,5.40
2023-02-03T23:23:24.110Z,6.80
2023-02-03T23:25:52.090Z,6.07
2023-02-03T23:28:20.405Z,7.47
2023-02-03T23:30:48.513Z,10.30
2023-02-03T23:33:17.915Z,11.80
2023-02-03T23:35:48.984Z,8.97
2023-02-03T23:38:18.055Z,12.83
2023-02-03T23:40:47.735Z,5.40
2023-02-03T23:43:16.128Z,13.00
2023-02-03T23:45:44.137Z,10.00
2023-02-03T23:48:13.198Z,7.30
2023-02-03T23:50:42.534Z,4.47
2023-02-03T23:53:11.039Z,6.27
2023-02-03T23:55:39.078Z,7.13
2023-02-03T23:58:07.106Z,6.80
